sensor_id;sensor_type;location;lat;lon;timestamp;temperature;humidity
1137;DHT22;557;48.466;7.950;2023-07-13T00:00:52;20.60;1.00
1137;DHT22;557;48.466;7.950;2023-07-13T00:03:39;20.70;1.00
1137;DHT22;557;48.466;7.950;2023-07-13T00:06:27;20.60;1.00
1137;DHT22;557;48.466;7.950;2023-07-13T00:09:19;20.70;1.00
1137;DHT22;557;48.466;7.950;2023-07-13T00:12:24;20.60;10.80
1137;DHT22;557;48.466;7.950;2023-07-13T00:15:14;20.60;1.00
1137;DHT22;557;48.466;7.950;2023-07-13T00:18:03;20.50;44.10
1137;DHT22;557;48.466;7.950;2023-07-13T00:20:50;20.50;99.90
1137;DHT22;557;48.466;7.950;2023-07-13T00:23:39;20.50;99.90
1137;DHT22;557;48.466;7.950;2023-07-13T00:26:27;20.50;99.90
1137;DHT22;557;48.466;7.950;2023-07-13T00:29:16;20.60;60.40
1137;DHT22;557;48.466;7.950;2023-07-13T00:32:04;20.70;1.00
1137;DHT22;557;48.466;7.950;2023-07-13T00:34:52;20.80;1.00
1137;DHT22;557;48.466;7.950;2023-07-13T00:37:39;20.80;98.90
1137;DHT22;557;48.466;7.950;2023-07-13T00:40:27;20.60;1.00
1137;DHT22;557;48.466;7.950;2023-07-13T00:43:16;20.50;6.90
1137;DHT22;557;48.466;7.950;2023-07-13T00:46:21;20.40;1.00
1137;DHT22;557;48.466;7.950;2023-07-13T00:49:13;20.20;99.90
1137;DHT22;557;48.466;7.950;2023-07-13T00:52:04;20.10;1.00
1137;DHT22;557;48.466;7.950;2023-07-13T00:55:07;20.00;1.00
1137;DHT22;557;48.466;7.950;2023-07-13T00:57:55;19.90;7.80
1137;DHT22;557;48.466;7.950;2023-07-13T01:00:43;19.80;1.00
1137;DHT22;557;48.466;7.950;2023-07-13T01:03:34;19.70;1.00
1137;DHT22;557;48.466;7.950;2023-07-13T01:06:21;19.60;1.00
1137;DHT22;557;48.466;7.950;2023-07-13T01:09:09;19.50;1.00
1137;DHT22;557;48.466;7.950;2023-07-13T01:11:57;19.40;99.90
1137;DHT22;557;48.466;7.950;2023-07-13T01:14:45;19.40;99.90
1137;DHT22;557;48.466;7.950;2023-07-13T01:17:34;19.40;99.90
1137;DHT22;557;48.466;7.950;2023-07-13T01:20:23;19.20;99.90
1137;DHT22;557;48.466;7.950;2023-07-13T01:23:12;19.20;99.90
1137;DHT22;557;48.466;7.950;2023-07-13T01:26:00;19.10;99.90
1137;DHT22;557;48.466;7.950;2023-07-13T01:28:47;19.10;1.00
1137;DHT22;557;48.466;7.950;2023-07-13T01:31:37;19.10;1.00
1137;DHT22;557;48.466;7.950;2023-07-13T01:34:24;19.00;1.00
1137;DHT22;557;48.466;7.950;2023-07-13T01:37:12;18.90;99.90
1137;DHT22;557;48.466;7.950;2023-07-13T01:40:02;18.90;1.00
1137;DHT22;557;48.466;7.950;2023-07-13T01:42:50;18.80;1.00
1137;DHT22;557;48.466;7.950;2023-07-13T01:45:48;18.80;99.90
1137;DHT22;557;48.466;7.950;2023-07-13T01:48:37;18.80;1.00
1137;DHT22;557;48.466;7.950;2023-07-13T01:51:24;18.80;1.00
1137;DHT22;557;48.466;7.950;2023-07-13T01:54:11;18.70;99.90
1137;DHT22;557;48.466;7.950;2023-07-13T01:57:00;18.70;99.90
1137;DHT22;557;48.466;7.950;2023-07-13T01:59:49;18.60;99.90
1137;DHT22;557;48.466;7.950;2023-07-13T02:02:36;18.50;99.90
1137;DHT22;557;48.466;7.950;2023-07-13T02:05:25;18.50;99.90
1137;DHT22;557;48.466;7.950;2023-07-13T02:08:12;18.50;1.00
1137;DHT22;557;48.466;7.950;2023-07-13T02:11:00;18.50;1.00
1137;DHT22;557;48.466;7.950;2023-07-13T02:13:48;18.50;99.90
1137;DHT22;557;48.466;7.950;2023-07-13T02:16:37;18.40;99.90
1137;DHT22;557;48.466;7.950;2023-07-13T02:19:24;18.30;99.90
1137;DHT22;557;48.466;7.950;2023-07-13T02:22:12;18.20;99.90
1137;DHT22;557;48.466;7.950;2023-07-13T02:25:00;18.20;1.00
1137;DHT22;557;48.466;7.950;2023-07-13T02:27:47;18.20;1.00
1137;DHT22;557;48.466;7.950;2023-07-13T02:30:36;18.20;1.00
1137;DHT22;557;48.466;7.950;2023-07-13T02:33:24;18.20;1.00
1137;DHT22;557;48.466;7.950;2023-07-13T02:36:11;18.10;1.00
1137;DHT22;557;48.466;7.950;2023-07-13T02:39:01;18.00;1.00
1137;DHT22;557;48.466;7.950;2023-07-13T02:41:48;18.00;1.00
1137;DHT22;557;48.466;7.950;2023-07-13T02:44:36;17.80;1.00
1137;DHT22;557;48.466;7.950;2023-07-13T02:47:24;17.80;1.00
1137;DHT22;557;48.466;7.950;2023-07-13T02:50:12;17.70;1.00
1137;DHT22;557;48.466;7.950;2023-07-13T02:52:59;17.60;1.00
1137;DHT22;557;48.466;7.950;2023-07-13T02:55:47;17.50;1.00
1137;DHT22;557;48.466;7.950;2023-07-13T02:58:34;17.50;1.00
1137;DHT22;557;48.466;7.950;2023-07-13T03:01:24;17.50;1.00
1137;DHT22;557;48.466;7.950;2023-07-13T03:04:13;17.40;1.00
1137;DHT22;557;48.466;7.950;2023-07-13T03:07:00;17.50;1.00
1137;DHT22;557;48.466;7.950;2023-07-13T03:09:48;17.40;4.70
1137;DHT22;557;48.466;7.950;2023-07-13T03:12:35;17.40;16.90
1137;DHT22;557;48.466;7.950;2023-07-13T03:15:23;17.30;8.20
1137;DHT22;557;48.466;7.950;2023-07-13T03:18:10;17.30;1.00
1137;DHT22;557;48.466;7.950;2023-07-13T03:20:59;17.30;28.90
1137;DHT22;557;48.466;7.950;2023-07-13T03:23:47;17.20;1.00
1137;DHT22;557;48.466;7.950;2023-07-13T03:26:34;17.10;1.00
1137;DHT22;557;48.466;7.950;2023-07-13T03:29:21;17.00;1.00
1137;DHT22;557;48.466;7.950;2023-07-13T03:32:09;16.90;1.00
1137;DHT22;557;48.466;7.950;2023-07-13T03:34:56;16.90;1.00
1137;DHT22;557;48.466;7.950;2023-07-13T03:37:45;16.90;1.00
1137;DHT22;557;48.466;7.950;2023-07-13T03:40:33;16.90;1.00
1137;DHT22;557;48.466;7.950;2023-07-13T03:43:20;16.90;1.00
1137;DHT22;557;48.466;7.950;2023-07-13T03:46:07;16.90;33.10
1137;DHT22;557;48.466;7.950;2023-07-13T03:48:55;16.90;1.00
1137;DHT22;557;48.466;7.950;2023-07-13T03:51:42;16.80;1.00
1137;DHT22;557;48.466;7.950;2023-07-13T03:54:31;16.80;32.60
1137;DHT22;557;48.466;7.950;2023-07-13T03:57:19;16.90;48.80
1137;DHT22;557;48.466;7.950;2023-07-13T04:00:07;17.00;21.30
1137;DHT22;557;48.466;7.950;2023-07-13T04:02:54;17.00;19.90
1137;DHT22;557;48.466;7.950;2023-07-13T04:05:42;17.00;7.30
1137;DHT22;557;48.466;7.950;2023-07-13T04:08:31;16.90;1.00
1137;DHT22;557;48.466;7.950;2023-07-13T04:11:21;16.90;1.00
1137;DHT22;557;48.466;7.950;2023-07-13T04:14:09;16.80;1.00
1137;DHT22;557;48.466;7.950;2023-07-13T04:16:56;16.80;1.00
1137;DHT22;557;48.466;7.950;2023-07-13T04:19:43;16.90;1.00
1137;DHT22;557;48.466;7.950;2023-07-13T04:22:31;16.90;6.90
1137;DHT22;557;48.466;7.950;2023-07-13T04:25:18;16.90;18.60
1137;DHT22;557;48.466;7.950;2023-07-13T04:28:07;16.90;1.00
1137;DHT22;557;48.466;7.950;2023-07-13T04:30:54;16.90;59.50
1137;DHT22;557;48.466;7.950;2023-07-13T04:33:42;17.00;81.10
1137;DHT22;557;48.466;7.950;2023-07-13T04:36:29;17.00;28.60
1137;DHT22;557;48.466;7.950;2023-07-13T04:39:16;17.00;1.00
1137;DHT22;557;48.466;7.950;2023-07-13T04:42:04;17.00;1.00
1137;DHT22;557;48.466;7.950;2023-07-13T04:44:53;17.00;1.00
1137;DHT22;557;48.466;7.950;2023-07-13T04:47:41;17.10;1.00
1137;DHT22;557;48.466;7.950;2023-07-13T04:50:28;17.10;1.00
1137;DHT22;557;48.466;7.950;2023-07-13T04:53:16;17.10;1.00
1137;DHT22;557;48.466;7.950;2023-07-13T04:56:04;17.20;27.00
1137;DHT22;557;48.466;7.950;2023-07-13T04:58:51;17.30;1.00
1137;DHT22;557;48.466;7.950;2023-07-13T05:01:40;17.30;1.00
1137;DHT22;557;48.466;7.950;2023-07-13T05:04:27;17.40;1.00
1137;DHT22;557;48.466;7.950;2023-07-13T05:07:15;17.50;1.00
1137;DHT22;557;48.466;7.950;2023-07-13T05:10:02;17.50;1.00
1137;DHT22;557;48.466;7.950;2023-07-13T05:12:50;17.50;1.00
1137;DHT22;557;48.466;7.950;2023-07-13T05:15:37;17.60;1.00
1137;DHT22;557;48.466;7.950;2023-07-13T05:18:26;17.70;1.00
1137;DHT22;557;48.466;7.950;2023-07-13T05:21:13;17.80;1.00
1137;DHT22;557;48.466;7.950;2023-07-13T05:24:01;17.90;1.00
1137;DHT22;557;48.466;7.950;2023-07-13T05:26:48;18.00;1.00
1137;DHT22;557;48.466;7.950;2023-07-13T05:29:35;18.10;1.00
1137;DHT22;557;48.466;7.950;2023-07-13T05:32:23;18.20;1.00
1137;DHT22;557;48.466;7.950;2023-07-13T05:35:11;18.30;1.00
1137;DHT22;557;48.466;7.950;2023-07-13T05:37:59;18.40;99.90
1137;DHT22;557;48.466;7.950;2023-07-13T05:40:46;18.60;99.90
1137;DHT22;557;48.466;7.950;2023-07-13T05:43:34;18.90;99.90
1137;DHT22;557;48.466;7.950;2023-07-13T05:46:22;19.10;99.90
1137;DHT22;557;48.466;7.950;2023-07-13T05:49:09;19.20;99.90
1137;DHT22;557;48.466;7.950;2023-07-13T05:51:58;19.20;99.90
1137;DHT22;557;48.466;7.950;2023-07-13T05:54:45;19.10;99.90
1137;DHT22;557;48.466;7.950;2023-07-13T05:57:32;19.00;99.90
1137;DHT22;557;48.466;7.950;2023-07-13T06:00:20;18.90;99.90
1137;DHT22;557;48.466;7.950;2023-07-13T06:03:07;18.80;99.90
1137;DHT22;557;48.466;7.950;2023-07-13T06:05:55;18.90;99.90
1137;DHT22;557;48.466;7.950;2023-07-13T06:08:43;19.00;99.90
1137;DHT22;557;48.466;7.950;2023-07-13T06:11:31;19.30;99.90
1137;DHT22;557;48.466;7.950;2023-07-13T06:14:18;19.50;1.00
1137;DHT22;557;48.466;7.950;2023-07-13T06:17:07;19.70;99.90
1137;DHT22;557;48.466;7.950;2023-07-13T06:19:54;19.70;1.00
1137;DHT22;557;48.466;7.950;2023-07-13T06:22:41;19.70;1.00
1137;DHT22;557;48.466;7.950;2023-07-13T06:25:30;19.90;99.90
1137;DHT22;557;48.466;7.950;2023-07-13T06:28:17;20.00;1.00
1137;DHT22;557;48.466;7.950;2023-07-13T06:31:06;19.90;13.80
1137;DHT22;557;48.466;7.950;2023-07-13T06:33:53;19.90;83.20
1137;DHT22;557;48.466;7.950;2023-07-13T06:36:41;19.90;99.90
1137;DHT22;557;48.466;7.950;2023-07-13T06:39:28;20.10;99.90
1137;DHT22;557;48.466;7.950;2023-07-13T06:42:17;20.20;99.90
1137;DHT22;557;48.466;7.950;2023-07-13T06:45:05;20.40;99.90
1137;DHT22;557;48.466;7.950;2023-07-13T06:47:53;20.30;99.90
1137;DHT22;557;48.466;7.950;2023-07-13T06:50:41;20.30;99.90
1137;DHT22;557;48.466;7.950;2023-07-13T06:53:29;20.40;99.90
1137;DHT22;557;48.466;7.950;2023-07-13T06:56:16;20.50;99.90
1137;DHT22;557;48.466;7.950;2023-07-13T06:59:05;20.70;1.00
1137;DHT22;557;48.466;7.950;2023-07-13T07:01:52;20.80;1.00
1137;DHT22;557;48.466;7.950;2023-07-13T07:04:39;20.80;1.00
1137;DHT22;557;48.466;7.950;2023-07-13T07:07:27;20.80;1.00
1137;DHT22;557;48.466;7.950;2023-07-13T07:10:14;20.90;1.00
1137;DHT22;557;48.466;7.950;2023-07-13T07:13:02;21.40;1.00
1137;DHT22;557;48.466;7.950;2023-07-13T07:15:51;21.60;1.00
1137;DHT22;557;48.466;7.950;2023-07-13T07:18:39;21.70;99.90
1137;DHT22;557;48.466;7.950;2023-07-13T07:21:26;21.80;99.90
1137;DHT22;557;48.466;7.950;2023-07-13T07:24:13;21.70;99.90
1137;DHT22;557;48.466;7.950;2023-07-13T07:27:01;21.80;99.90
1137;DHT22;557;48.466;7.950;2023-07-13T07:29:49;22.10;1.00
1137;DHT22;557;48.466;7.950;2023-07-13T07:32:38;22.40;99.90
1137;DHT22;557;48.466;7.950;2023-07-13T07:35:25;22.50;99.90
1137;DHT22;557;48.466;7.950;2023-07-13T07:38:12;22.60;99.90
1137;DHT22;557;48.466;7.950;2023-07-13T07:41:03;22.70;99.90
1137;DHT22;557;48.466;7.950;2023-07-13T07:43:50;22.70;99.90
1137;DHT22;557;48.466;7.950;2023-07-13T07:46:39;22.70;99.90
1137;DHT22;557;48.466;7.950;2023-07-13T07:49:28;22.70;99.90
1137;DHT22;557;48.466;7.950;2023-07-13T07:52:16;23.10;99.90
1137;DHT22;557;48.466;7.950;2023-07-13T07:55:04;23.50;99.90
1137;DHT22;557;48.466;7.950;2023-07-13T07:57:52;24.10;99.90
1137;DHT22;557;48.466;7.950;2023-07-13T08:00:39;24.60;99.90
1137;DHT22;557;48.466;7.950;2023-07-13T08:03:26;24.90;99.90
1137;DHT22;557;48.466;7.950;2023-07-13T08:06:15;24.40;99.90
1137;DHT22;557;48.466;7.950;2023-07-13T08:09:05;24.60;99.90
1137;DHT22;557;48.466;7.950;2023-07-13T08:11:54;24.70;99.90
1137;DHT22;557;48.466;7.950;2023-07-13T08:14:41;24.70;99.90
1137;DHT22;557;48.466;7.950;2023-07-13T08:17:28;24.80;97.40
1137;DHT22;557;48.466;7.950;2023-07-13T08:20:16;24.90;62.10
1137;DHT22;557;48.466;7.950;2023-07-13T08:23:05;24.70;73.60
1137;DHT22;557;48.466;7.950;2023-07-13T08:25:53;24.60;72.90
1137;DHT22;557;48.466;7.950;2023-07-13T08:28:41;24.60;61.70
1137;DHT22;557;48.466;7.950;2023-07-13T08:31:28;24.90;52.00
1137;DHT22;557;48.466;7.950;2023-07-13T08:34:15;25.00;49.40
1137;DHT22;557;48.466;7.950;2023-07-13T08:37:03;25.30;50.00
1137;DHT22;557;48.466;7.950;2023-07-13T08:39:52;25.30;34.30
1137;DHT22;557;48.466;7.950;2023-07-13T08:42:42;25.10;29.20
1137;DHT22;557;48.466;7.950;2023-07-13T08:45:38;25.50;47.50
1137;DHT22;557;48.466;7.950;2023-07-13T08:48:32;26.00;28.60
1137;DHT22;557;48.466;7.950;2023-07-13T08:51:31;25.70;26.70
1137;DHT22;557;48.466;7.950;2023-07-13T08:54:26;25.80;36.60
1137;DHT22;557;48.466;7.950;2023-07-13T08:57:20;26.20;24.10
1137;DHT22;557;48.466;7.950;2023-07-13T09:00:10;25.90;17.30
1137;DHT22;557;48.466;7.950;2023-07-13T09:02:59;25.50;11.30
1137;DHT22;557;48.466;7.950;2023-07-13T09:05:52;25.50;10.10
1137;DHT22;557;48.466;7.950;2023-07-13T09:08:55;25.40;5.40
1137;DHT22;557;48.466;7.950;2023-07-13T09:11:50;25.70;7.60
1137;DHT22;557;48.466;7.950;2023-07-13T09:14:45;25.70;1.00
1137;DHT22;557;48.466;7.950;2023-07-13T09:17:39;25.80;2.10
1137;DHT22;557;48.466;7.950;2023-07-13T09:20:32;25.80;1.00
1137;DHT22;557;48.466;7.950;2023-07-13T09:23:23;25.50;1.00
1137;DHT22;557;48.466;7.950;2023-07-13T09:26:21;25.30;1.00
1137;DHT22;557;48.466;7.950;2023-07-13T09:29:13;25.20;1.00
1137;DHT22;557;48.466;7.950;2023-07-13T09:32:06;25.40;1.00
1137;DHT22;557;48.466;7.950;2023-07-13T09:34:56;25.50;1.00
1137;DHT22;557;48.466;7.950;2023-07-13T09:37:45;25.70;1.00
1137;DHT22;557;48.466;7.950;2023-07-13T09:40:43;25.50;1.00
1137;DHT22;557;48.466;7.950;2023-07-13T09:43:31;25.90;1.00
1137;DHT22;557;48.466;7.950;2023-07-13T09:46:22;26.00;1.00
1137;DHT22;557;48.466;7.950;2023-07-13T09:49:11;26.30;1.00
1137;DHT22;557;48.466;7.950;2023-07-13T09:52:00;26.80;1.00
1137;DHT22;557;48.466;7.950;2023-07-13T09:54:50;27.10;1.00
1137;DHT22;557;48.466;7.950;2023-07-13T09:57:46;27.40;1.00
1137;DHT22;557;48.466;7.950;2023-07-13T10:00:34;28.00;1.00
1137;DHT22;557;48.466;7.950;2023-07-13T10:03:25;28.50;1.00
1137;DHT22;557;48.466;7.950;2023-07-13T10:06:16;28.40;1.00
1137;DHT22;557;48.466;7.950;2023-07-13T10:09:07;28.10;1.00
1137;DHT22;557;48.466;7.950;2023-07-13T10:11:54;27.70;1.00
1137;DHT22;557;48.466;7.950;2023-07-13T10:14:42;27.40;1.00
1137;DHT22;557;48.466;7.950;2023-07-13T10:17:31;26.40;1.00
1137;DHT22;557;48.466;7.950;2023-07-13T10:20:20;25.90;1.00
1137;DHT22;557;48.466;7.950;2023-07-13T10:23:17;25.70;1.00
1137;DHT22;557;48.466;7.950;2023-07-13T10:26:15;26.40;1.00
1137;DHT22;557;48.466;7.950;2023-07-13T10:29:06;27.40;1.00
1137;DHT22;557;48.466;7.950;2023-07-13T10:31:58;28.20;1.00
1137;DHT22;557;48.466;7.950;2023-07-13T10:34:47;28.50;1.00
1137;DHT22;557;48.466;7.950;2023-07-13T10:37:43;28.40;1.00
1137;DHT22;557;48.466;7.950;2023-07-13T10:40:39;28.40;1.00
1137;DHT22;557;48.466;7.950;2023-07-13T10:43:32;28.80;1.00
1137;DHT22;557;48.466;7.950;2023-07-13T10:46:24;28.40;1.00
1137;DHT22;557;48.466;7.950;2023-07-13T10:49:13;28.20;1.00
1137;DHT22;557;48.466;7.950;2023-07-13T10:52:02;28.10;1.00
1137;DHT22;557;48.466;7.950;2023-07-13T10:54:49;28.20;1.00
1137;DHT22;557;48.466;7.950;2023-07-13T10:57:43;28.20;1.00
1137;DHT22;557;48.466;7.950;2023-07-13T11:00:31;27.20;1.00
1137;DHT22;557;48.466;7.950;2023-07-13T11:03:20;26.90;1.00
1137;DHT22;557;48.466;7.950;2023-07-13T11:06:11;27.10;1.00
1137;DHT22;557;48.466;7.950;2023-07-13T11:09:18;27.30;1.00
1137;DHT22;557;48.466;7.950;2023-07-13T11:12:09;27.80;1.00
1137;DHT22;557;48.466;7.950;2023-07-13T11:15:12;28.20;1.00
1137;DHT22;557;48.466;7.950;2023-07-13T11:18:03;27.90;1.00
1137;DHT22;557;48.466;7.950;2023-07-13T11:20:51;27.60;1.00
1137;DHT22;557;48.466;7.950;2023-07-13T11:23:42;28.70;1.00
1137;DHT22;557;48.466;7.950;2023-07-13T11:26:40;29.20;1.00
1137;DHT22;557;48.466;7.950;2023-07-13T11:29:35;29.50;1.00
1137;DHT22;557;48.466;7.950;2023-07-13T11:32:30;28.90;1.00
1137;DHT22;557;48.466;7.950;2023-07-13T11:35:22;28.70;1.00
1137;DHT22;557;48.466;7.950;2023-07-13T11:38:15;29.40;1.00
1137;DHT22;557;48.466;7.950;2023-07-13T11:41:05;29.70;1.00
1137;DHT22;557;48.466;7.950;2023-07-13T11:43:54;30.10;1.00
1137;DHT22;557;48.466;7.950;2023-07-13T11:46:47;29.70;1.00
1137;DHT22;557;48.466;7.950;2023-07-13T11:49:50;28.80;1.00
1137;DHT22;557;48.466;7.950;2023-07-13T11:52:39;27.40;1.00
1137;DHT22;557;48.466;7.950;2023-07-13T11:55:26;26.60;1.00
1137;DHT22;557;48.466;7.950;2023-07-13T11:58:21;27.40;1.00
1137;DHT22;557;48.466;7.950;2023-07-13T12:01:17;28.70;1.00
1137;DHT22;557;48.466;7.950;2023-07-13T12:04:06;29.80;1.00
1137;DHT22;557;48.466;7.950;2023-07-13T12:06:57;29.30;1.00
1137;DHT22;557;48.466;7.950;2023-07-13T12:09:45;28.10;1.00
1137;DHT22;557;48.466;7.950;2023-07-13T12:12:32;27.00;1.00
1137;DHT22;557;48.466;7.950;2023-07-13T12:15:20;26.40;1.00
1137;DHT22;557;48.466;7.950;2023-07-13T12:18:13;27.00;1.00
1137;DHT22;557;48.466;7.950;2023-07-13T12:21:01;28.40;1.00
1137;DHT22;557;48.466;7.950;2023-07-13T12:23:50;30.00;1.00
1137;DHT22;557;48.466;7.950;2023-07-13T12:26:38;30.70;1.00
1137;DHT22;557;48.466;7.950;2023-07-13T12:29:25;29.30;1.00
1137;DHT22;557;48.466;7.950;2023-07-13T12:32:17;27.90;1.00
1137;DHT22;557;48.466;7.950;2023-07-13T12:35:14;28.20;1.00
1137;DHT22;557;48.466;7.950;2023-07-13T12:38:08;27.60;1.00
1137;DHT22;557;48.466;7.950;2023-07-13T12:40:59;27.10;1.00
1137;DHT22;557;48.466;7.950;2023-07-13T12:43:48;27.00;1.00
1137;DHT22;557;48.466;7.950;2023-07-13T12:46:35;27.30;1.00
1137;DHT22;557;48.466;7.950;2023-07-13T12:49:26;28.00;1.00
1137;DHT22;557;48.466;7.950;2023-07-13T12:52:15;29.40;1.00
1137;DHT22;557;48.466;7.950;2023-07-13T12:55:05;30.40;1.00
1137;DHT22;557;48.466;7.950;2023-07-13T12:57:58;30.40;1.00
1137;DHT22;557;48.466;7.950;2023-07-13T13:00:49;29.90;1.00
1137;DHT22;557;48.466;7.950;2023-07-13T13:03:39;29.40;1.00
1137;DHT22;557;48.466;7.950;2023-07-13T13:06:28;29.10;1.00
1137;DHT22;557;48.466;7.950;2023-07-13T13:09:17;29.60;1.00
1137;DHT22;557;48.466;7.950;2023-07-13T13:12:07;29.90;1.00
1137;DHT22;557;48.466;7.950;2023-07-13T13:14:57;29.80;1.00
1137;DHT22;557;48.466;7.950;2023-07-13T13:17:44;29.30;1.00
1137;DHT22;557;48.466;7.950;2023-07-13T13:20:32;28.60;1.00
1137;DHT22;557;48.466;7.950;2023-07-13T13:23:20;28.10;1.00
1137;DHT22;557;48.466;7.950;2023-07-13T13:26:10;27.80;1.00
1137;DHT22;557;48.466;7.950;2023-07-13T13:28:58;27.70;1.00
1137;DHT22;557;48.466;7.950;2023-07-13T13:31:47;27.70;1.00
1137;DHT22;557;48.466;7.950;2023-07-13T13:34:35;27.50;1.00
1137;DHT22;557;48.466;7.950;2023-07-13T13:37:23;28.00;1.00
1137;DHT22;557;48.466;7.950;2023-07-13T13:40:15;29.20;1.00
1137;DHT22;557;48.466;7.950;2023-07-13T13:43:13;30.30;1.00
1137;DHT22;557;48.466;7.950;2023-07-13T13:46:01;30.40;1.00
1137;DHT22;557;48.466;7.950;2023-07-13T13:48:50;30.50;1.00
1137;DHT22;557;48.466;7.950;2023-07-13T13:51:38;30.90;1.00
1137;DHT22;557;48.466;7.950;2023-07-13T13:54:25;30.30;1.00
1137;DHT22;557;48.466;7.950;2023-07-13T13:57:13;29.20;1.00
1137;DHT22;557;48.466;7.950;2023-07-13T14:00:00;28.30;1.00
1137;DHT22;557;48.466;7.950;2023-07-13T14:02:48;28.60;1.00
1137;DHT22;557;48.466;7.950;2023-07-13T14:05:38;29.20;1.00
1137;DHT22;557;48.466;7.950;2023-07-13T14:08:26;29.20;1.00
1137;DHT22;557;48.466;7.950;2023-07-13T14:11:15;29.30;1.00
1137;DHT22;557;48.466;7.950;2023-07-13T14:14:03;29.10;1.00
1137;DHT22;557;48.466;7.950;2023-07-13T14:16:51;28.90;1.00
1137;DHT22;557;48.466;7.950;2023-07-13T14:19:39;28.80;1.00
1137;DHT22;557;48.466;7.950;2023-07-13T14:22:28;29.10;1.00
1137;DHT22;557;48.466;7.950;2023-07-13T14:25:16;29.20;1.00
1137;DHT22;557;48.466;7.950;2023-07-13T14:28:16;29.90;1.00
1137;DHT22;557;48.466;7.950;2023-07-13T14:31:04;29.90;1.00
1137;DHT22;557;48.466;7.950;2023-07-13T14:33:52;29.50;1.00
1137;DHT22;557;48.466;7.950;2023-07-13T14:36:41;29.80;1.00
1137;DHT22;557;48.466;7.950;2023-07-13T14:39:31;30.80;1.00
1137;DHT22;557;48.466;7.950;2023-07-13T14:42:19;31.80;1.00
1137;DHT22;557;48.466;7.950;2023-07-13T14:45:12;32.10;1.00
1137;DHT22;557;48.466;7.950;2023-07-13T14:48:02;32.40;1.00
1137;DHT22;557;48.466;7.950;2023-07-13T14:50:53;31.50;1.00
1137;DHT22;557;48.466;7.950;2023-07-13T14:53:41;30.40;1.00
1137;DHT22;557;48.466;7.950;2023-07-13T14:56:30;29.50;1.00
1137;DHT22;557;48.466;7.950;2023-07-13T14:59:17;28.80;1.00
1137;DHT22;557;48.466;7.950;2023-07-13T15:02:15;28.60;1.00
1137;DHT22;557;48.466;7.950;2023-07-13T15:05:11;29.00;1.00
1137;DHT22;557;48.466;7.950;2023-07-13T15:08:02;28.60;1.00
1137;DHT22;557;48.466;7.950;2023-07-13T15:10:49;28.10;1.00
1137;DHT22;557;48.466;7.950;2023-07-13T15:13:38;28.00;1.00
1137;DHT22;557;48.466;7.950;2023-07-13T15:16:26;28.70;1.00
1137;DHT22;557;48.466;7.950;2023-07-13T15:19:14;29.10;1.00
1137;DHT22;557;48.466;7.950;2023-07-13T15:22:01;29.40;1.00
1137;DHT22;557;48.466;7.950;2023-07-13T15:24:49;29.00;1.00
1137;DHT22;557;48.466;7.950;2023-07-13T15:27:38;28.50;1.00
1137;DHT22;557;48.466;7.950;2023-07-13T15:30:28;28.00;1.00
1137;DHT22;557;48.466;7.950;2023-07-13T15:33:19;27.70;1.00
1137;DHT22;557;48.466;7.950;2023-07-13T15:36:08;28.40;1.00
1137;DHT22;557;48.466;7.950;2023-07-13T15:38:55;29.50;1.00
1137;DHT22;557;48.466;7.950;2023-07-13T15:41:44;30.00;1.00
1137;DHT22;557;48.466;7.950;2023-07-13T15:44:33;29.90;1.00
1137;DHT22;557;48.466;7.950;2023-07-13T15:47:21;29.30;1.00
1137;DHT22;557;48.466;7.950;2023-07-13T15:50:12;28.70;1.00
1137;DHT22;557;48.466;7.950;2023-07-13T15:52:59;28.30;1.00
1137;DHT22;557;48.466;7.950;2023-07-13T15:55:48;27.90;1.00
1137;DHT22;557;48.466;7.950;2023-07-13T15:58:37;27.60;1.00
1137;DHT22;557;48.466;7.950;2023-07-13T16:01:26;27.40;1.00
1137;DHT22;557;48.466;7.950;2023-07-13T16:04:15;27.00;1.00
1137;DHT22;557;48.466;7.950;2023-07-13T16:07:03;27.00;1.00
1137;DHT22;557;48.466;7.950;2023-07-13T16:09:51;26.90;1.00
1137;DHT22;557;48.466;7.950;2023-07-13T16:12:38;26.70;1.00
1137;DHT22;557;48.466;7.950;2023-07-13T16:15:26;26.60;1.00
1137;DHT22;557;48.466;7.950;2023-07-13T16:18:14;26.60;1.00
1137;DHT22;557;48.466;7.950;2023-07-13T16:21:05;26.50;1.00
1137;DHT22;557;48.466;7.950;2023-07-13T16:23:58;26.40;1.00
1137;DHT22;557;48.466;7.950;2023-07-13T16:26:47;26.50;1.00
1137;DHT22;557;48.466;7.950;2023-07-13T16:29:34;26.50;1.00
1137;DHT22;557;48.466;7.950;2023-07-13T16:32:22;26.50;1.00
1137;DHT22;557;48.466;7.950;2023-07-13T16:35:09;26.80;1.00
1137;DHT22;557;48.466;7.950;2023-07-13T16:37:58;27.10;1.00
1137;DHT22;557;48.466;7.950;2023-07-13T16:40:45;27.30;1.00
1137;DHT22;557;48.466;7.950;2023-07-13T16:43:34;27.40;1.00
1137;DHT22;557;48.466;7.950;2023-07-13T16:46:22;27.40;1.00
1137;DHT22;557;48.466;7.950;2023-07-13T16:49:20;27.30;1.00
1137;DHT22;557;48.466;7.950;2023-07-13T16:52:10;27.20;1.00
1137;DHT22;557;48.466;7.950;2023-07-13T16:54:59;26.90;1.00
1137;DHT22;557;48.466;7.950;2023-07-13T16:57:46;26.60;1.00
1137;DHT22;557;48.466;7.950;2023-07-13T17:00:34;26.50;1.00
1137;DHT22;557;48.466;7.950;2023-07-13T17:03:23;26.40;1.00
1137;DHT22;557;48.466;7.950;2023-07-13T17:06:22;26.20;1.00
1137;DHT22;557;48.466;7.950;2023-07-13T17:09:13;26.20;1.00
1137;DHT22;557;48.466;7.950;2023-07-13T17:12:02;26.10;1.00
1137;DHT22;557;48.466;7.950;2023-07-13T17:14:50;26.00;1.00
1137;DHT22;557;48.466;7.950;2023-07-13T17:17:38;25.80;1.00
1137;DHT22;557;48.466;7.950;2023-07-13T17:20:35;25.70;1.00
1137;DHT22;557;48.466;7.950;2023-07-13T17:23:26;25.70;1.00
1137;DHT22;557;48.466;7.950;2023-07-13T17:26:14;25.50;1.00
1137;DHT22;557;48.466;7.950;2023-07-13T17:29:02;25.60;1.00
1137;DHT22;557;48.466;7.950;2023-07-13T17:31:50;25.60;1.00
1137;DHT22;557;48.466;7.950;2023-07-13T17:34:38;25.60;1.00
1137;DHT22;557;48.466;7.950;2023-07-13T17:37:31;25.40;1.00
1137;DHT22;557;48.466;7.950;2023-07-13T17:40:18;25.30;1.00
1137;DHT22;557;48.466;7.950;2023-07-13T17:43:08;25.30;1.00
1137;DHT22;557;48.466;7.950;2023-07-13T17:45:57;25.30;1.00
1137;DHT22;557;48.466;7.950;2023-07-13T17:48:45;25.30;1.00
1137;DHT22;557;48.466;7.950;2023-07-13T17:51:33;25.30;1.00
1137;DHT22;557;48.466;7.950;2023-07-13T17:54:24;25.40;1.00
1137;DHT22;557;48.466;7.950;2023-07-13T17:57:11;25.40;1.00
1137;DHT22;557;48.466;7.950;2023-07-13T17:59:59;25.30;1.00
1137;DHT22;557;48.466;7.950;2023-07-13T18:02:48;25.20;1.00
1137;DHT22;557;48.466;7.950;2023-07-13T18:05:36;25.10;1.00
1137;DHT22;557;48.466;7.950;2023-07-13T18:08:25;25.10;1.00
1137;DHT22;557;48.466;7.950;2023-07-13T18:11:13;25.00;1.00
1137;DHT22;557;48.466;7.950;2023-07-13T18:14:01;24.90;1.00
1137;DHT22;557;48.466;7.950;2023-07-13T18:16:52;24.90;1.00
1137;DHT22;557;48.466;7.950;2023-07-13T18:19:44;24.80;1.00
1137;DHT22;557;48.466;7.950;2023-07-13T18:22:32;24.80;1.00
1137;DHT22;557;48.466;7.950;2023-07-13T18:25:21;24.70;1.00
1137;DHT22;557;48.466;7.950;2023-07-13T18:28:09;24.60;1.00
1137;DHT22;557;48.466;7.950;2023-07-13T18:30:58;24.50;1.00
1137;DHT22;557;48.466;7.950;2023-07-13T18:33:46;24.40;1.00
1137;DHT22;557;48.466;7.950;2023-07-13T18:36:38;24.30;1.00
1137;DHT22;557;48.466;7.950;2023-07-13T18:39:25;24.20;1.00
1137;DHT22;557;48.466;7.950;2023-07-13T18:42:13;24.10;1.00
1137;DHT22;557;48.466;7.950;2023-07-13T18:45:01;24.10;1.00
1137;DHT22;557;48.466;7.950;2023-07-13T18:47:53;24.00;1.00
1137;DHT22;557;48.466;7.950;2023-07-13T18:50:44;23.90;1.00
1137;DHT22;557;48.466;7.950;2023-07-13T18:53:33;23.70;1.00
1137;DHT22;557;48.466;7.950;2023-07-13T18:56:20;23.60;1.00